Time;durP1;ratioP1;P1;durP2;ratioP2;P2;SDS_P1;SDS_P2;PMS_P1;PMS_P2;Temp;Humidity;BMP_temperature;BMP_pressure;BME280_temperature;BME280_humidity;BME280_pressure;Samples;Min_cycle;Max_cycle;Signal;HPM_P1;HPM_P2
2021/10/11 00:00:04;;;;;;;;;;;6.70;97.30;;;;;;5066524;28;19924;-75
2021/10/11 00:02:30;;;;;;;;;;;6.70;97.30;;;;;;5064132;28;20454;-75
2021/10/11 00:04:55;;;;;;;;;;;6.70;97.40;;;;;;5046910;28;20003;-75
2021/10/11 00:07:20;;;;;;;;;;;6.60;97.40;;;;;;5067092;28;19924;-75
2021/10/11 00:09:46;;;;;;;;;;;6.60;97.50;;;;;;5066162;28;19943;-75
2021/10/11 00:12:11;;;;;;;;;;;6.60;97.50;;;;;;5066369;28;19923;-75
2021/10/11 00:14:37;;;;;;;;;;;6.60;97.70;;;;;;5063193;28;20264;-75
2021/10/11 00:17:02;;;;;;;;;;;6.60;97.70;;;;;;5065513;28;19913;-75
2021/10/11 00:19:33;;;;;;;;;;;6.70;97.70;;;;;;5067459;28;20247;-75
2021/10/11 00:21:59;;;;;;;;;;;6.70;97.80;;;;;;5063475;28;19916;-75
2021/10/11 00:24:25;;;;;;;;;;;6.70;97.80;;;;;;5064762;28;20256;-75
2021/10/11 00:26:50;;;;;;;;;;;6.70;97.80;;;;;;5065497;28;19920;-75
2021/10/11 00:29:16;;;;;;;;;;;6.70;97.70;;;;;;5047960;28;19917;-75
2021/10/11 00:31:41;;;;;;;;;;;6.70;97.70;;;;;;5061403;28;19928;-78
2021/10/11 00:34:07;;;;;;;;;;;6.70;97.70;;;;;;5062992;28;19916;-78
2021/10/11 00:36:35;;;;;;;;;;;6.70;97.80;;;;;;5065705;28;20361;-79
2021/10/11 00:39:01;;;;;;;;;;;6.70;97.70;;;;;;5065524;28;19912;-78
2021/10/11 00:41:28;;;;;;;;;;;6.80;97.70;;;;;;5063871;28;19923;-78
2021/10/11 00:43:56;;;;;;;;;;;6.80;97.70;;;;;;5066910;28;20231;-78
2021/10/11 00:46:21;;;;;;;;;;;6.80;97.70;;;;;;5063107;22;20380;-57
2021/10/11 00:48:46;;;;;;;;;;;6.90;97.70;;;;;;5042752;28;19963;-58
2021/10/11 00:51:12;;;;;;;;;;;6.90;97.60;;;;;;5041834;28;19921;-57
2021/10/11 00:53:37;;;;;;;;;;;6.90;97.60;;;;;;5045265;28;20007;-58
2021/10/11 00:56:03;;;;;;;;;;;6.90;97.60;;;;;;5042087;28;19948;-57
2021/10/11 00:58:28;;;;;;;;;;;6.90;97.50;;;;;;5043701;28;19948;-58
2021/10/11 01:00:55;;;;;;;;;;;6.90;97.60;;;;;;5039298;28;19932;-57
2021/10/11 01:03:20;;;;;;;;;;;6.90;97.60;;;;;;5040834;28;19916;-58
2021/10/11 01:05:46;;;;;;;;;;;6.80;97.60;;;;;;5041018;28;19917;-58
2021/10/11 01:08:12;;;;;;;;;;;6.90;97.60;;;;;;5043028;28;19951;-57
2021/10/11 01:10:37;;;;;;;;;;;6.90;97.60;;;;;;5041941;28;19913;-58
2021/10/11 01:13:03;;;;;;;;;;;6.90;97.60;;;;;;5042954;28;19917;-58
2021/10/11 01:15:28;;;;;;;;;;;6.90;97.70;;;;;;5041808;28;20369;-59
2021/10/11 01:17:54;;;;;;;;;;;6.90;97.70;;;;;;5042235;28;19925;-58
2021/10/11 01:20:19;;;;;;;;;;;6.90;97.60;;;;;;5041200;28;21144;-58
2021/10/11 01:22:45;;;;;;;;;;;7.00;97.60;;;;;;5041958;28;19983;-59
2021/10/11 01:25:12;;;;;;;;;;;7.00;97.60;;;;;;5043610;28;20165;-57
2021/10/11 01:27:37;;;;;;;;;;;7.10;97.50;;;;;;5046695;28;19935;-58
2021/10/11 01:30:04;;;;;;;;;;;7.10;97.50;;;;;;5047957;28;20459;-58
2021/10/11 01:32:30;;;;;;;;;;;7.10;97.50;;;;;;5021282;28;20381;-58
2021/10/11 01:34:55;;;;;;;;;;;7.10;97.50;;;;;;5047622;28;19922;-56
2021/10/11 01:37:21;;;;;;;;;;;7.20;97.50;;;;;;5045909;28;20399;-58
2021/10/11 01:39:49;;;;;;;;;;;7.20;97.40;;;;;;5041960;28;19921;-58
2021/10/11 01:42:14;;;;;;;;;;;7.20;97.40;;;;;;5044017;28;20100;-57
2021/10/11 01:44:40;;;;;;;;;;;7.30;97.40;;;;;;5046277;28;20386;-57
2021/10/11 01:47:06;;;;;;;;;;;7.40;97.40;;;;;;5045555;28;19920;-55
2021/10/11 01:49:31;;;;;;;;;;;7.40;97.30;;;;;;5044048;28;19921;-58
2021/10/11 01:51:57;;;;;;;;;;;7.40;97.30;;;;;;5046030;28;19925;-57
2021/10/11 01:54:22;;;;;;;;;;;7.50;97.30;;;;;;5045776;28;19963;-57
2021/10/11 01:56:48;;;;;;;;;;;7.50;97.30;;;;;;5046855;28;19924;-59
2021/10/11 01:59:13;;;;;;;;;;;7.50;97.20;;;;;;5046302;28;19909;-58
2021/10/11 02:01:38;;;;;;;;;;;7.60;97.20;;;;;;5038909;28;19952;-58
2021/10/11 02:04:04;;;;;;;;;;;7.60;97.20;;;;;;5043888;28;19913;-58
2021/10/11 02:06:30;;;;;;;;;;;7.60;97.20;;;;;;5044651;28;19909;-58
2021/10/11 02:08:55;;;;;;;;;;;7.60;97.20;;;;;;5044133;28;19955;-57
2021/10/11 02:11:21;;;;;;;;;;;7.60;97.20;;;;;;5045384;28;19954;-57
2021/10/11 02:13:46;;;;;;;;;;;7.60;97.20;;;;;;5047158;28;19974;-59
2021/10/11 02:16:11;;;;;;;;;;;7.60;97.20;;;;;;5042853;28;20455;-57
2021/10/11 02:18:37;;;;;;;;;;;7.60;97.10;;;;;;5045303;28;19964;-56
2021/10/11 02:21:02;;;;;;;;;;;7.60;97.20;;;;;;5024720;28;20251;-58
2021/10/11 02:23:28;;;;;;;;;;;7.60;97.20;;;;;;5047428;28;20297;-58
2021/10/11 02:25:53;;;;;;;;;;;7.60;97.20;;;;;;5045613;28;20393;-59
2021/10/11 02:28:20;;;;;;;;;;;7.70;97.30;;;;;;5030028;28;19952;-58
2021/10/11 02:30:45;;;;;;;;;;;7.70;97.30;;;;;;5044459;28;19978;-59
2021/10/11 02:33:11;;;;;;;;;;;7.70;97.20;;;;;;5044151;28;19917;-59
2021/10/11 02:35:36;;;;;;;;;;;7.70;97.20;;;;;;5046442;28;19909;-59
2021/10/11 02:38:01;;;;;;;;;;;7.70;97.20;;;;;;5043766;28;20007;-58
2021/10/11 02:40:27;;;;;;;;;;;7.70;97.20;;;;;;5043971;28;19928;-59
2021/10/11 02:42:52;;;;;;;;;;;7.80;97.30;;;;;;5044349;28;20284;-59
2021/10/11 02:45:18;;;;;;;;;;;7.80;97.30;;;;;;5046654;28;19956;-58
2021/10/11 02:47:44;;;;;;;;;;;7.80;97.40;;;;;;5045842;28;19913;-60
2021/10/11 02:50:09;;;;;;;;;;;7.90;97.20;;;;;;5047063;28;19963;-59
2021/10/11 02:52:35;;;;;;;;;;;7.90;97.20;;;;;;5041183;28;19948;-59
2021/10/11 02:55:01;;;;;;;;;;;8.00;97.20;;;;;;5044883;28;19917;-59
2021/10/11 02:57:26;;;;;;;;;;;8.00;97.10;;;;;;5046629;28;20065;-59
2021/10/11 02:59:52;;;;;;;;;;;8.10;97.20;;;;;;5042058;28;20376;-59
2021/10/11 03:02:18;;;;;;;;;;;8.10;97.10;;;;;;5043756;28;19977;-58
2021/10/11 03:04:44;;;;;;;;;;;8.10;97.10;;;;;;5028281;28;19913;-59
2021/10/11 03:07:10;;;;;;;;;;;8.20;97.10;;;;;;5045132;28;20419;-59
2021/10/11 03:09:35;;;;;;;;;;;8.20;97.10;;;;;;5044846;28;19919;-57
2021/10/11 03:12:01;;;;;;;;;;;8.20;97.10;;;;;;5043874;28;19928;-58
2021/10/11 03:14:26;;;;;;;;;;;8.30;97.10;;;;;;5046203;28;19913;-59
2021/10/11 03:16:52;;;;;;;;;;;8.30;97.00;;;;;;5042642;28;20298;-59
2021/10/11 03:19:17;;;;;;;;;;;8.40;97.00;;;;;;5045585;28;19917;-58
2021/10/11 03:21:43;;;;;;;;;;;8.40;97.00;;;;;;5042623;28;20098;-59
2021/10/11 03:24:08;;;;;;;;;;;8.50;97.00;;;;;;5047136;28;19909;-59
2021/10/11 03:26:33;;;;;;;;;;;8.50;97.00;;;;;;5042802;28;19912;-59
2021/10/11 03:28:59;;;;;;;;;;;8.50;97.00;;;;;;5044073;28;20415;-57
2021/10/11 03:31:24;;;;;;;;;;;8.60;97.00;;;;;;5041519;28;20369;-59
2021/10/11 03:33:50;;;;;;;;;;;8.60;97.10;;;;;;5045914;28;20489;-58
2021/10/11 03:36:15;;;;;;;;;;;8.60;97.10;;;;;;5044351;28;20388;-58
2021/10/11 03:38:40;;;;;;;;;;;8.60;97.10;;;;;;5045630;28;19908;-59
2021/10/11 03:41:06;;;;;;;;;;;8.60;97.10;;;;;;5041759;28;19929;-58
2021/10/11 03:43:31;;;;;;;;;;;8.70;97.10;;;;;;5042422;28;19960;-59
2021/10/11 03:45:58;;;;;;;;;;;8.70;97.10;;;;;;5042286;28;20381;-60
2021/10/11 03:48:23;;;;;;;;;;;8.70;97.10;;;;;;5044475;28;20314;-58
2021/10/11 03:50:49;;;;;;;;;;;8.70;97.10;;;;;;5044750;28;19935;-59
2021/10/11 03:53:15;;;;;;;;;;;8.80;97.10;;;;;;5045069;28;20316;-58
2021/10/11 03:55:40;;;;;;;;;;;8.80;97.20;;;;;;5043687;28;19913;-60
2021/10/11 03:58:06;;;;;;;;;;;8.80;97.20;;;;;;5044385;28;20018;-60
2021/10/11 04:00:32;;;;;;;;;;;8.90;97.20;;;;;;5041198;28;19962;-60
2021/10/11 04:03:02;;;;;;;;;;;8.90;97.20;;;;;;5042727;28;19923;-59
2021/10/11 04:05:27;;;;;;;;;;;8.90;97.10;;;;;;5043354;28;19913;-58
2021/10/11 04:07:55;;;;;;;;;;;8.90;97.20;;;;;;5045183;28;19966;-57
2021/10/11 04:10:26;;;;;;;;;;;8.90;97.30;;;;;;5041318;28;19913;-59
2021/10/11 04:12:56;;;;;;;;;;;9.00;97.20;;;;;;5041506;28;19927;-59
2021/10/11 04:15:21;;;;;;;;;;;9.00;97.50;;;;;;5042656;28;20397;-59
2021/10/11 04:17:48;;;;;;;;;;;9.00;97.30;;;;;;5044631;28;20019;-59
2021/10/11 04:20:14;;;;;;;;;;;9.10;97.60;;;;;;5043045;28;20030;-58
2021/10/11 04:22:40;;;;;;;;;;;9.00;97.60;;;;;;5023694;28;19948;-59
2021/10/11 04:25:06;;;;;;;;;;;9.00;97.70;;;;;;5043967;28;19932;-58
2021/10/11 04:27:31;;;;;;;;;;;9.00;98.00;;;;;;5042121;28;19919;-58
2021/10/11 04:29:57;;;;;;;;;;;9.00;98.10;;;;;;5044190;28;19924;-58
2021/10/11 04:32:22;;;;;;;;;;;9.00;98.20;;;;;;5040263;28;19928;-59
2021/10/11 04:34:47;;;;;;;;;;;8.90;99.30;;;;;;5043074;28;19917;-58
2021/10/11 04:37:13;;;;;;;;;;;8.90;99.30;;;;;;5041428;28;19920;-57
2021/10/11 04:39:38;;;;;;;;;;;8.90;99.10;;;;;;5043258;28;19917;-59
2021/10/11 04:42:04;;;;;;;;;;;8.90;99.30;;;;;;5038328;28;19941;-60
2021/10/11 04:44:29;;;;;;;;;;;8.90;99.40;;;;;;5031687;28;20486;-59
2021/10/11 04:46:55;;;;;;;;;;;8.90;99.70;;;;;;5038420;28;19928;-58
2021/10/11 04:49:20;;;;;;;;;;;8.80;99.60;;;;;;5038412;28;19959;-59
2021/10/11 04:51:46;;;;;;;;;;;8.80;99.90;;;;;;5040041;28;19925;-58
2021/10/11 04:54:14;;;;;;;;;;;8.80;99.90;;;;;;5040280;28;20399;-58
2021/10/11 04:56:39;;;;;;;;;;;8.80;99.90;;;;;;5042281;28;20280;-57
2021/10/11 04:59:05;;;;;;;;;;;8.90;99.90;;;;;;5044292;28;19913;-58
2021/10/11 05:01:30;;;;;;;;;;;8.90;99.90;;;;;;5038117;28;19924;-57
2021/10/11 05:03:56;;;;;;;;;;;8.90;99.90;;;;;;5047072;28;19916;-58
2021/10/11 05:06:21;;;;;;;;;;;8.80;99.90;;;;;;5042301;28;20019;-60
2021/10/11 05:08:46;;;;;;;;;;;8.90;99.90;;;;;;5045404;28;19913;-58
2021/10/11 05:11:12;;;;;;;;;;;8.90;99.90;;;;;;5043103;28;19931;-60
2021/10/11 05:13:37;;;;;;;;;;;8.90;99.90;;;;;;5045208;28;19921;-61
2021/10/11 05:16:04;;;;;;;;;;;8.90;99.90;;;;;;5040133;28;19919;-59
2021/10/11 05:18:29;;;;;;;;;;;8.90;99.90;;;;;;5047988;28;20307;-60
2021/10/11 05:20:57;;;;;;;;;;;9.00;99.90;;;;;;5047714;28;19943;-60
2021/10/11 05:23:23;;;;;;;;;;;9.00;99.90;;;;;;5044984;28;19913;-59
2021/10/11 05:25:48;;;;;;;;;;;9.00;99.90;;;;;;5046475;28;19970;-59
2021/10/11 05:28:14;;;;;;;;;;;9.00;99.90;;;;;;5046309;28;19961;-59
2021/10/11 05:30:43;;;;;;;;;;;9.10;99.90;;;;;;5046163;28;19913;-60
2021/10/11 05:33:08;;;;;;;;;;;9.10;99.90;;;;;;5045402;28;20003;-60
2021/10/11 05:35:36;;;;;;;;;;;9.10;99.90;;;;;;5046973;28;19996;-60
2021/10/11 05:38:04;;;;;;;;;;;9.10;99.90;;;;;;5044759;28;19921;-60
2021/10/11 05:40:30;;;;;;;;;;;9.10;99.90;;;;;;5045156;28;20026;-60
2021/10/11 05:42:55;;;;;;;;;;;9.20;99.90;;;;;;5028188;28;20345;-60
2021/10/11 05:45:21;;;;;;;;;;;9.20;99.90;;;;;;5048445;28;19921;-60
2021/10/11 05:47:46;;;;;;;;;;;9.20;99.90;;;;;;5046991;28;19998;-60
2021/10/11 05:50:12;;;;;;;;;;;9.20;99.90;;;;;;5047217;28;19942;-59
2021/10/11 05:52:37;;;;;;;;;;;9.20;99.90;;;;;;5046279;28;20070;-58
2021/10/11 05:55:03;;;;;;;;;;;9.30;99.90;;;;;;5043752;28;20228;-59
2021/10/11 05:57:29;;;;;;;;;;;9.20;99.90;;;;;;5044714;28;19917;-60
2021/10/11 05:59:54;;;;;;;;;;;9.30;99.90;;;;;;5048057;28;19924;-60
2021/10/11 06:02:20;;;;;;;;;;;9.30;99.90;;;;;;5043563;28;19916;-60
2021/10/11 06:04:45;;;;;;;;;;;9.30;99.90;;;;;;5048064;28;19909;-58
2021/10/11 06:07:10;;;;;;;;;;;9.40;99.90;;;;;;5047913;28;19928;-59
2021/10/11 06:09:36;;;;;;;;;;;9.40;99.90;;;;;;5043282;28;19912;-59
2021/10/11 06:12:01;;;;;;;;;;;9.40;99.90;;;;;;5040478;28;20008;-58
2021/10/11 06:14:27;;;;;;;;;;;9.40;99.90;;;;;;5044628;28;19919;-60
2021/10/11 06:16:52;;;;;;;;;;;9.40;99.90;;;;;;5021416;28;19920;-59
2021/10/11 06:19:18;;;;;;;;;;;9.50;99.90;;;;;;5042277;28;19916;-59
2021/10/11 06:21:43;;;;;;;;;;;9.50;99.90;;;;;;5039616;28;19924;-60
2021/10/11 06:24:11;;;;;;;;;;;9.50;99.90;;;;;;5047812;28;19912;-59
2021/10/11 06:26:36;;;;;;;;;;;9.50;99.90;;;;;;5043682;28;19917;-58
2021/10/11 06:29:02;;;;;;;;;;;9.50;99.90;;;;;;5042547;28;20047;-60
2021/10/11 06:31:27;;;;;;;;;;;9.50;99.90;;;;;;5041985;28;19916;-58
2021/10/11 06:33:52;;;;;;;;;;;9.60;99.90;;;;;;5039340;28;19960;-58
2021/10/11 06:36:18;;;;;;;;;;;9.60;99.90;;;;;;5044999;28;19921;-60
2021/10/11 06:38:43;;;;;;;;;;;9.60;99.90;;;;;;5046959;28;20361;-58
2021/10/11 06:41:09;;;;;;;;;;;9.60;99.90;;;;;;5043464;28;20025;-57
2021/10/11 06:43:34;;;;;;;;;;;9.70;99.90;;;;;;5046058;28;19913;-58
2021/10/11 06:46:00;;;;;;;;;;;9.70;99.90;;;;;;5045528;28;19939;-60
2021/10/11 06:48:25;;;;;;;;;;;9.70;99.90;;;;;;5047095;28;20021;-62
2021/10/11 06:50:51;;;;;;;;;;;9.70;99.90;;;;;;5044580;28;19956;-62
2021/10/11 06:53:16;;;;;;;;;;;9.80;99.90;;;;;;5043059;28;20003;-62
2021/10/11 06:55:42;;;;;;;;;;;9.80;99.90;;;;;;5045126;28;19913;-58
2021/10/11 06:58:07;;;;;;;;;;;9.90;99.90;;;;;;5045667;28;19916;-61
2021/10/11 07:00:33;;;;;;;;;;;9.90;99.90;;;;;;5025964;28;19917;-61
2021/10/11 07:02:59;;;;;;;;;;;9.90;99.90;;;;;;5041032;28;20229;-60
2021/10/11 07:05:25;;;;;;;;;;;10.00;99.90;;;;;;5045766;28;20142;-61
2021/10/11 07:07:51;;;;;;;;;;;10.00;99.90;;;;;;5041809;28;20293;-60
2021/10/11 07:10:16;;;;;;;;;;;10.10;99.90;;;;;;5044422;28;19962;-63
2021/10/11 07:12:41;;;;;;;;;;;10.10;99.90;;;;;;5046753;28;19913;-61
2021/10/11 07:15:07;;;;;;;;;;;10.20;99.90;;;;;;5042961;28;19967;-61
2021/10/11 07:17:32;;;;;;;;;;;10.20;99.90;;;;;;5046194;28;19963;-60
2021/10/11 07:19:58;;;;;;;;;;;10.20;99.90;;;;;;5044320;28;19932;-63
2021/10/11 07:22:24;;;;;;;;;;;10.30;99.90;;;;;;5040798;28;19923;-61
2021/10/11 07:24:49;;;;;;;;;;;10.30;99.90;;;;;;5042200;28;19927;-57
2021/10/11 07:27:14;;;;;;;;;;;10.30;99.90;;;;;;5045264;28;19917;-58
2021/10/11 07:29:40;;;;;;;;;;;10.30;99.90;;;;;;5045217;28;20373;-60
2021/10/11 07:32:06;;;;;;;;;;;10.40;99.90;;;;;;5043600;28;20013;-61
2021/10/11 07:34:32;;;;;;;;;;;10.40;99.90;;;;;;5045024;28;19917;-61
2021/10/11 07:36:57;;;;;;;;;;;10.40;99.90;;;;;;5041189;28;19978;-60
2021/10/11 07:39:23;;;;;;;;;;;10.40;99.90;;;;;;5041145;28;19912;-61
2021/10/11 07:41:49;;;;;;;;;;;10.50;99.90;;;;;;5042255;28;19917;-59
2021/10/11 07:44:14;;;;;;;;;;;10.50;99.90;;;;;;5043506;28;19947;-61
2021/10/11 07:46:40;;;;;;;;;;;10.60;99.90;;;;;;5046064;28;19921;-58
2021/10/11 07:49:06;;;;;;;;;;;10.50;99.90;;;;;;5043420;28;20008;-60
2021/10/11 07:51:31;;;;;;;;;;;10.70;99.90;;;;;;5040081;28;19917;-61
2021/10/11 07:53:56;;;;;;;;;;;10.70;99.90;;;;;;5043178;28;19913;-61
2021/10/11 07:56:22;;;;;;;;;;;10.70;99.90;;;;;;5043712;28;19917;-58
2021/10/11 07:58:47;;;;;;;;;;;10.80;99.90;;;;;;5042476;28;19959;-59
2021/10/11 08:01:13;;;;;;;;;;;10.80;99.90;;;;;;5042423;28;20307;-58
2021/10/11 08:03:38;;;;;;;;;;;10.80;99.90;;;;;;5039684;28;19932;-59
2021/10/11 08:06:04;;;;;;;;;;;10.80;99.90;;;;;;5042488;28;19920;-61
2021/10/11 08:08:30;;;;;;;;;;;10.90;99.90;;;;;;5041711;28;19916;-62
2021/10/11 08:10:56;;;;;;;;;;;10.90;99.90;;;;;;5043045;28;19956;-59
2021/10/11 08:13:22;;;;;;;;;;;11.00;99.90;;;;;;5038998;28;19963;-61
2021/10/11 08:15:48;;;;;;;;;;;11.00;99.90;;;;;;5045264;28;19917;-61
2021/10/11 08:18:13;;;;;;;;;;;11.00;99.90;;;;;;5044758;28;19939;-62
2021/10/11 08:20:39;;;;;;;;;;;11.10;99.90;;;;;;5040197;28;20015;-59
2021/10/11 08:23:04;;;;;;;;;;;11.20;99.90;;;;;;5022287;28;20277;-63
2021/10/11 08:25:30;;;;;;;;;;;11.20;99.90;;;;;;5041548;28;20016;-61
2021/10/11 08:27:55;;;;;;;;;;;11.20;99.90;;;;;;5042452;28;19944;-61
2021/10/11 08:30:21;;;;;;;;;;;11.20;99.90;;;;;;5042303;28;19921;-62
2021/10/11 08:32:46;;;;;;;;;;;11.20;99.90;;;;;;5043308;28;19943;-62
2021/10/11 08:35:12;;;;;;;;;;;11.20;99.90;;;;;;5048209;28;19912;-60
2021/10/11 08:37:37;;;;;;;;;;;11.10;99.90;;;;;;5047859;28;19921;-60
2021/10/11 08:40:03;;;;;;;;;;;11.20;99.90;;;;;;5046862;28;19982;-62
2021/10/11 08:42:29;;;;;;;;;;;11.20;99.90;;;;;;5046221;28;20503;-62
2021/10/11 08:44:54;;;;;;;;;;;11.20;99.90;;;;;;5048696;28;21745;-62
2021/10/11 08:47:20;;;;;;;;;;;11.20;99.90;;;;;;5029948;28;19923;-58
2021/10/11 08:49:46;;;;;;;;;;;11.30;99.90;;;;;;5046037;28;20439;-62
2021/10/11 08:52:12;;;;;;;;;;;11.30;99.90;;;;;;5045019;28;19913;-59
2021/10/11 08:54:38;;;;;;;;;;;11.40;99.90;;;;;;5044647;28;19920;-60
2021/10/11 08:57:05;;;;;;;;;;;11.40;99.90;;;;;;5048806;28;19917;-57
2021/10/11 08:59:30;;;;;;;;;;;11.50;99.90;;;;;;5047110;28;19966;-59
2021/10/11 09:02:02;;;;;;;;;;;11.60;99.90;;;;;;5047968;28;19916;-59
2021/10/11 09:04:28;;;;;;;;;;;11.70;99.90;;;;;;5041742;28;20464;-62
2021/10/11 09:07:06;;;;;;;;;;;11.70;99.90;;;;;;5048949;28;19917;-62
2021/10/11 09:09:32;;;;;;;;;;;11.70;99.90;;;;;;5045971;28;19967;-62
2021/10/11 09:11:58;;;;;;;;;;;11.80;99.90;;;;;;5029786;28;20058;-60
2021/10/11 09:14:25;;;;;;;;;;;11.90;99.90;;;;;;5047288;28;20004;-62
2021/10/11 09:16:59;;;;;;;;;;;12.10;99.90;;;;;;5049016;28;19996;-60
2021/10/11 09:19:31;;;;;;;;;;;12.30;99.90;;;;;;5047988;28;19920;-59
2021/10/11 09:21:56;;;;;;;;;;;12.40;99.90;;;;;;5042419;28;19913;-62
2021/10/11 09:24:21;;;;;;;;;;;12.50;99.90;;;;;;5045569;28;19919;-61
2021/10/11 09:26:49;;;;;;;;;;;12.50;99.90;;;;;;5047646;28;19927;-61
2021/10/11 09:29:26;;;;;;;;;;;12.60;99.90;;;;;;5046552;28;20039;-61
2021/10/11 09:31:51;;;;;;;;;;;12.60;99.90;;;;;;5047077;28;19916;-62
2021/10/11 09:34:20;;;;;;;;;;;12.70;99.90;;;;;;5047735;28;19912;-60
2021/10/11 09:37:05;;;;;;;;;;;12.80;99.90;;;;;;5045466;28;19916;-62
2021/10/11 09:39:32;;;;;;;;;;;12.80;99.90;;;;;;5047901;28;20374;-59
2021/10/11 09:41:58;;;;;;;;;;;12.80;99.90;;;;;;5043784;28;19916;-62
2021/10/11 09:44:24;;;;;;;;;;;12.90;99.90;;;;;;5042937;28;20381;-61
2021/10/11 09:49:45;;;;;;;;;;;13.00;99.90;;;;;;5033233;28;19971;-59
2021/10/11 09:52:10;;;;;;;;;;;12.90;99.90;;;;;;5042768;28;19932;-62
2021/10/11 09:54:36;;;;;;;;;;;12.90;99.90;;;;;;5046052;28;20285;-60
2021/10/11 09:57:03;;;;;;;;;;;13.00;99.90;;;;;;5048103;28;19986;-61
2021/10/11 09:59:30;;;;;;;;;;;13.00;99.90;;;;;;5044090;28;20010;-60
2021/10/11 10:01:56;;;;;;;;;;;13.10;99.90;;;;;;5044147;28;19917;-61
2021/10/11 10:04:27;;;;;;;;;;;13.10;99.90;;;;;;5047134;28;19920;-62
2021/10/11 10:06:54;;;;;;;;;;;13.20;99.90;;;;;;5047555;28;20012;-62
2021/10/11 10:09:20;;;;;;;;;;;13.20;99.70;;;;;;5043267;28;19999;-62
2021/10/11 10:11:46;;;;;;;;;;;13.30;99.20;;;;;;5045294;28;20555;-58
2021/10/11 10:14:18;;;;;;;;;;;13.30;99.30;;;;;;5047095;28;19963;-63
2021/10/11 10:16:47;;;;;;;;;;;13.30;99.20;;;;;;5044412;28;20381;-59
2021/10/11 10:19:13;;;;;;;;;;;13.40;99.20;;;;;;5046536;28;20530;-62
2021/10/11 10:21:40;;;;;;;;;;;13.40;99.00;;;;;;5042768;28;19925;-61
2021/10/11 10:24:06;;;;;;;;;;;13.50;98.90;;;;;;5043043;28;19913;-62
2021/10/11 10:26:35;;;;;;;;;;;13.60;99.00;;;;;;5045627;28;19924;-61
2021/10/11 10:29:14;;;;;;;;;;;13.70;98.60;;;;;;5048069;28;19912;-61
2021/10/11 10:31:41;;;;;;;;;;;13.70;98.60;;;;;;5045372;28;20402;-62
2021/10/11 10:34:17;;;;;;;;;;;13.80;98.40;;;;;;5047723;28;19917;-60
2021/10/11 10:36:44;;;;;;;;;;;13.80;98.40;;;;;;5047646;28;19912;-63
2021/10/11 10:39:11;;;;;;;;;;;13.90;98.30;;;;;;5047531;28;19909;-59
2021/10/11 10:41:37;;;;;;;;;;;13.90;98.20;;;;;;5046121;28;19916;-62
2021/10/11 10:44:20;;;;;;;;;;;13.90;97.90;;;;;;5041175;28;20578;-61
2021/10/11 10:46:49;;;;;;;;;;;13.90;98.00;;;;;;5045069;28;19917;-63
2021/10/11 10:49:24;;;;;;;;;;;14.00;98.00;;;;;;5041775;28;20381;-63
2021/10/11 10:51:50;;;;;;;;;;;14.00;97.90;;;;;;5044164;28;20429;-59
2021/10/11 10:54:15;;;;;;;;;;;14.10;97.50;;;;;;5041998;28;19920;-59
2021/10/11 10:56:41;;;;;;;;;;;14.20;96.90;;;;;;5042752;28;19924;-63
2021/10/11 10:59:10;;;;;;;;;;;14.20;96.70;;;;;;5042155;28;20253;-60
2021/10/11 11:01:36;;;;;;;;;;;14.20;96.70;;;;;;5042804;28;20381;-62
2021/10/11 11:04:10;;;;;;;;;;;14.20;97.20;;;;;;5045515;28;19917;-63
2021/10/11 11:06:35;;;;;;;;;;;14.10;97.50;;;;;;5039297;28;19966;-59
2021/10/11 11:09:01;;;;;;;;;;;14.00;97.90;;;;;;5046882;28;20283;-62
2021/10/11 11:11:27;;;;;;;;;;;14.00;98.20;;;;;;5040460;28;19916;-62
2021/10/11 11:13:54;;;;;;;;;;;13.80;98.00;;;;;;5041089;28;20385;-61
2021/10/11 11:16:27;;;;;;;;;;;13.80;98.10;;;;;;5041684;28;19913;-63
2021/10/11 11:18:53;;;;;;;;;;;13.70;98.10;;;;;;5011533;28;19916;-62
2021/10/11 11:21:19;;;;;;;;;;;13.60;98.10;;;;;;5040998;28;20357;-63
2021/10/11 11:23:44;;;;;;;;;;;13.60;98.30;;;;;;5042522;28;19946;-63
2021/10/11 11:26:11;;;;;;;;;;;13.60;98.30;;;;;;5042591;28;19917;-60
2021/10/11 11:28:37;;;;;;;;;;;13.60;98.30;;;;;;5044848;28;20054;-63
2021/10/11 11:31:04;;;;;;;;;;;13.60;98.10;;;;;;5042767;28;20083;-61
2021/10/11 11:33:30;;;;;;;;;;;13.60;98.10;;;;;;5044272;28;19912;-60
2021/10/11 11:35:56;;;;;;;;;;;13.50;97.90;;;;;;5044257;28;19932;-62
2021/10/11 11:38:23;;;;;;;;;;;13.50;97.70;;;;;;5043410;28;19923;-62
2021/10/11 11:40:53;;;;;;;;;;;13.40;97.80;;;;;;5044602;28;19921;-60
2021/10/11 11:43:19;;;;;;;;;;;13.40;97.60;;;;;;5041993;28;19921;-62
2021/10/11 11:45:45;;;;;;;;;;;13.40;97.50;;;;;;5041848;28;20416;-62
2021/10/11 11:48:11;;;;;;;;;;;13.40;97.60;;;;;;5043302;28;20365;-60
2021/10/11 11:50:37;;;;;;;;;;;13.50;97.50;;;;;;5045731;28;19923;-63
2021/10/11 11:53:08;;;;;;;;;;;13.60;97.50;;;;;;5041449;28;19912;-62
2021/10/11 11:55:34;;;;;;;;;;;13.70;97.30;;;;;;5037869;28;20019;-60
2021/10/11 11:58:00;;;;;;;;;;;13.90;96.50;;;;;;5039991;28;19999;-60
2021/10/11 12:00:26;;;;;;;;;;;14.00;95.90;;;;;;5039272;28;19927;-58
2021/10/11 12:02:52;;;;;;;;;;;14.20;95.40;;;;;;5042796;28;19917;-62
2021/10/11 12:05:18;;;;;;;;;;;14.30;95.30;;;;;;5045202;28;19919;-60
2021/10/11 12:07:44;;;;;;;;;;;14.50;95.10;;;;;;5036941;28;19917;-59
2021/10/11 12:10:17;;;;;;;;;;;14.50;93.60;;;;;;5043021;28;19917;-58
2021/10/11 12:12:42;;;;;;;;;;;14.60;93.40;;;;;;5024367;28;19913;-61
2021/10/11 12:15:16;;;;;;;;;;;14.60;93.70;;;;;;5043465;28;19917;-60
2021/10/11 12:17:42;;;;;;;;;;;14.70;93.70;;;;;;5043003;28;19960;-58
2021/10/11 12:20:07;;;;;;;;;;;14.70;92.40;;;;;;5043863;28;19916;-62
2021/10/11 12:22:33;;;;;;;;;;;14.70;92.60;;;;;;5043793;28;19924;-59
2021/10/11 12:24:59;;;;;;;;;;;14.80;92.90;;;;;;5040576;28;20431;-61
2021/10/11 12:27:25;;;;;;;;;;;14.70;91.70;;;;;;5045636;28;19962;-58
2021/10/11 12:29:50;;;;;;;;;;;14.70;92.00;;;;;;5044447;28;19917;-61
2021/10/11 12:32:16;;;;;;;;;;;14.70;91.80;;;;;;5040122;28;19919;-63
2021/10/11 12:34:42;;;;;;;;;;;14.70;92.00;;;;;;5026335;28;19961;-60
2021/10/11 12:37:15;;;;;;;;;;;14.70;92.30;;;;;;5027290;28;19913;-61
2021/10/11 12:39:42;;;;;;;;;;;14.70;91.40;;;;;;5043773;28;19992;-60
2021/10/11 12:42:18;;;;;;;;;;;14.70;91.90;;;;;;5040083;28;19920;-61
2021/10/11 12:44:47;;;;;;;;;;;14.80;91.80;;;;;;5062741;22;20019;-73
2021/10/11 12:47:32;;;;;;;;;;;14.90;91.80;;;;;;5101479;22;19924;-70
2021/10/11 12:50:05;;;;;;;;;;;14.90;91.50;;;;;;5064943;28;19917;-73
2021/10/11 12:52:35;;;;;;;;;;;15.00;90.90;;;;;;5064966;28;19958;-72
2021/10/11 12:55:13;;;;;;;;;;;15.00;91.50;;;;;;5066722;28;20008;-73
2021/10/11 12:57:39;;;;;;;;;;;15.10;91.60;;;;;;5046276;28;19966;-72
2021/10/11 13:00:06;;;;;;;;;;;15.10;90.90;;;;;;5043282;28;19920;-71
2021/10/11 13:02:31;;;;;;;;;;;15.10;91.40;;;;;;5045966;28;20276;-71
2021/10/11 13:04:56;;;;;;;;;;;15.20;91.20;;;;;;5046780;28;19927;-71
2021/10/11 13:07:22;;;;;;;;;;;15.20;90.70;;;;;;5044693;28;20450;-73
2021/10/11 13:09:47;;;;;;;;;;;15.20;91.00;;;;;;5045499;28;19963;-72
2021/10/11 13:12:13;;;;;;;;;;;15.20;91.10;;;;;;5045006;28;20391;-74
2021/10/11 13:14:38;;;;;;;;;;;15.20;91.00;;;;;;5044736;28;19921;-74
2021/10/11 13:17:03;;;;;;;;;;;15.20;91.30;;;;;;5043648;28;19917;-72
2021/10/11 13:19:29;;;;;;;;;;;15.20;90.70;;;;;;5048551;28;19921;-78
2021/10/11 13:21:54;;;;;;;;;;;15.10;90.70;;;;;;5051938;28;19952;-79
2021/10/11 13:24:20;;;;;;;;;;;15.00;90.40;;;;;;5049475;28;19912;-77
2021/10/11 13:26:45;;;;;;;;;;;14.90;91.20;;;;;;5050348;28;19924;-75
2021/10/11 14:28:33;;;;;;;;;;;13.80;95.10;;;;;;5047873;28;19924;-70
2021/10/11 15:56:59;;;;;;;;;;;12.40;98.00;;;;;;5045333;28;20577;-70
2021/10/11 15:59:01;;;;;;;;;;;12.30;98.00;;;;;;5045613;28;19912;-69
2021/10/11 16:01:41;;;;;;;;;;;12.30;98.10;;;;;;5046183;28;19917;-70
2021/10/11 16:04:06;;;;;;;;;;;12.20;98.10;;;;;;5060376;28;19913;-70
2021/10/11 16:06:32;;;;;;;;;;;12.20;98.40;;;;;;5044644;28;19976;-72
2021/10/11 16:08:58;;;;;;;;;;;12.10;98.50;;;;;;5043523;28;20011;-72
2021/10/11 16:11:24;;;;;;;;;;;12.00;98.80;;;;;;5045535;28;20367;-71
2021/10/11 16:13:49;;;;;;;;;;;11.80;99.20;;;;;;5046154;28;19917;-73
2021/10/11 16:16:15;;;;;;;;;;;11.70;99.50;;;;;;5045994;28;19917;-73
2021/10/11 16:18:40;;;;;;;;;;;11.60;99.50;;;;;;5045969;28;19920;-73
2021/10/11 16:21:07;;;;;;;;;;;11.50;99.90;;;;;;5046482;28;19925;-73
2021/10/11 16:23:33;;;;;;;;;;;11.40;99.90;;;;;;5046662;28;20011;-73
2021/10/11 16:25:59;;;;;;;;;;;11.40;99.90;;;;;;5046270;28;20339;-72
2021/10/11 16:28:25;;;;;;;;;;;11.30;99.90;;;;;;5044241;28;19975;-72
2021/10/11 16:30:51;;;;;;;;;;;11.40;99.90;;;;;;5045137;28;19916;-72
2021/10/11 16:33:16;;;;;;;;;;;11.40;99.90;;;;;;5044989;28;19917;-72
2021/10/11 16:35:43;;;;;;;;;;;11.40;99.90;;;;;;5046060;28;19958;-72
2021/10/11 16:38:08;;;;;;;;;;;11.40;99.90;;;;;;5046918;28;19916;-71
2021/10/11 16:40:35;;;;;;;;;;;11.40;99.90;;;;;;5045102;28;19920;-72
2021/10/11 16:43:01;;;;;;;;;;;11.40;99.90;;;;;;5047224;28;20259;-71
2021/10/11 16:45:26;;;;;;;;;;;11.30;99.90;;;;;;5043470;28;19920;-71